sensor_id;sensor_type;location;lat;lon;timestamp;P1;durP1;ratioP1;P2;durP2;ratioP2
9034;SDS011;4552;43.422;24.592;2023-03-12T00:02:03;2.13;;;1.67;;
9034;SDS011;4552;43.422;24.592;2023-03-12T00:04:30;1.80;;;1.70;;
9034;SDS011;4552;43.422;24.592;2023-03-12T00:06:58;2.30;;;2.03;;
9034;SDS011;4552;43.422;24.592;2023-03-12T00:09:27;5.17;;;2.33;;
9034;SDS011;4552;43.422;24.592;2023-03-12T00:11:54;3.20;;;1.70;;
9034;SDS011;4552;43.422;24.592;2023-03-12T00:14:23;2.10;;;1.90;;
9034;SDS011;4552;43.422;24.592;2023-03-12T13:37:29;1.87;;;1.77;;
9034;SDS011;4552;43.422;24.592;2023-03-12T13:40:38;2.30;;;2.00;;
9034;SDS011;4552;43.422;24.592;2023-03-12T13:46:26;1.93;;;1.80;;
9034;SDS011;4552;43.422;24.592;2023-03-12T13:49:01;1.87;;;1.70;;
9034;SDS011;4552;43.422;24.592;2023-03-12T13:51:31;2.50;;;1.83;;
9034;SDS011;4552;43.422;24.592;2023-03-12T13:54:00;3.00;;;2.70;;
9034;SDS011;4552;43.422;24.592;2023-03-12T13:56:29;2.77;;;1.90;;
9034;SDS011;4552;43.422;24.592;2023-03-12T14:15:22;5.57;;;2.00;;
9034;SDS011;4552;43.422;24.592;2023-03-12T14:17:55;2.30;;;2.07;;
9034;SDS011;4552;43.422;24.592;2023-03-12T14:20:25;2.20;;;2.00;;
9034;SDS011;4552;43.422;24.592;2023-03-12T14:22:54;1.90;;;1.77;;
9034;SDS011;4552;43.422;24.592;2023-03-12T14:25:30;1.73;;;1.63;;
9034;SDS011;4552;43.422;24.592;2023-03-12T14:44:58;1.63;;;1.53;;
9034;SDS011;4552;43.422;24.592;2023-03-12T14:47:30;1.63;;;1.53;;
9034;SDS011;4552;43.422;24.592;2023-03-12T14:50:18;1.50;;;1.40;;
9034;SDS011;4552;43.422;24.592;2023-03-12T14:52:46;1.77;;;1.50;;
9034;SDS011;4552;43.422;24.592;2023-03-12T14:55:14;1.67;;;1.57;;
9034;SDS011;4552;43.422;24.592;2023-03-12T15:21:17;3.60;;;1.70;;
9034;SDS011;4552;43.422;24.592;2023-03-12T15:23:47;3.20;;;1.40;;
9034;SDS011;4552;43.422;24.592;2023-03-12T15:26:25;2.53;;;1.53;;
9034;SDS011;4552;43.422;24.592;2023-03-12T15:28:54;1.67;;;1.57;;
9034;SDS011;4552;43.422;24.592;2023-03-12T15:31:22;1.70;;;1.60;;
9034;SDS011;4552;43.422;24.592;2023-03-12T15:33:58;2.03;;;1.83;;
9034;SDS011;4552;43.422;24.592;2023-03-12T15:36:28;1.67;;;1.57;;
9034;SDS011;4552;43.422;24.592;2023-03-12T15:38:57;1.60;;;1.50;;
9034;SDS011;4552;43.422;24.592;2023-03-12T15:41:33;1.73;;;1.63;;
9034;SDS011;4552;43.422;24.592;2023-03-12T18:07:08;1.70;;;1.60;;
9034;SDS011;4552;43.422;24.592;2023-03-12T18:09:36;2.10;;;1.90;;
9034;SDS011;4552;43.422;24.592;2023-03-12T18:12:07;3.00;;;1.60;;
9034;SDS011;4552;43.422;24.592;2023-03-12T18:21:19;2.53;;;1.90;;
9034;SDS011;4552;43.422;24.592;2023-03-12T18:23:48;2.67;;;2.00;;
9034;SDS011;4552;43.422;24.592;2023-03-12T18:27:18;1.90;;;1.80;;
9034;SDS011;4552;43.422;24.592;2023-03-12T18:29:45;1.90;;;1.70;;
9034;SDS011;4552;43.422;24.592;2023-03-12T18:32:12;2.10;;;1.90;;
9034;SDS011;4552;43.422;24.592;2023-03-12T18:34:39;2.27;;;1.80;;
9034;SDS011;4552;43.422;24.592;2023-03-12T18:37:09;2.67;;;2.00;;
9034;SDS011;4552;43.422;24.592;2023-03-12T18:39:35;2.23;;;1.80;;
9034;SDS011;4552;43.422;24.592;2023-03-12T18:42:03;5.50;;;2.10;;
9034;SDS011;4552;43.422;24.592;2023-03-12T19:18:03;3.77;;;2.20;;
9034;SDS011;4552;43.422;24.592;2023-03-12T19:20:34;2.73;;;2.10;;
9034;SDS011;4552;43.422;24.592;2023-03-12T19:26:25;4.47;;;2.40;;
9034;SDS011;4552;43.422;24.592;2023-03-12T19:28:52;2.43;;;2.23;;
9034;SDS011;4552;43.422;24.592;2023-03-12T19:31:18;4.00;;;2.70;;
9034;SDS011;4552;43.422;24.592;2023-03-12T19:33:46;2.70;;;2.50;;
9034;SDS011;4552;43.422;24.592;2023-03-12T19:36:13;3.57;;;2.40;;
9034;SDS011;4552;43.422;24.592;2023-03-12T19:38:40;4.70;;;3.27;;
9034;SDS011;4552;43.422;24.592;2023-03-12T19:41:07;2.67;;;2.47;;
9034;SDS011;4552;43.422;24.592;2023-03-12T19:43:36;2.70;;;2.40;;
9034;SDS011;4552;43.422;24.592;2023-03-12T19:46:24;3.90;;;2.80;;
9034;SDS011;4552;43.422;24.592;2023-03-12T19:48:51;8.70;;;3.73;;
9034;SDS011;4552;43.422;24.592;2023-03-12T19:51:18;5.80;;;4.03;;
9034;SDS011;4552;43.422;24.592;2023-03-12T19:53:45;7.43;;;3.90;;
9034;SDS011;4552;43.422;24.592;2023-03-12T19:56:12;8.63;;;4.10;;
9034;SDS011;4552;43.422;24.592;2023-03-12T19:58:41;6.23;;;3.43;;
9034;SDS011;4552;43.422;24.592;2023-03-12T20:21:23;5.63;;;2.80;;
9034;SDS011;4552;43.422;24.592;2023-03-12T20:23:53;4.03;;;3.00;;
9034;SDS011;4552;43.422;24.592;2023-03-12T20:26:20;4.23;;;2.57;;
9034;SDS011;4552;43.422;24.592;2023-03-12T20:28:47;3.93;;;3.00;;
9034;SDS011;4552;43.422;24.592;2023-03-12T20:31:15;4.17;;;3.33;;
9034;SDS011;4552;43.422;24.592;2023-03-12T20:33:42;3.93;;;3.30;;
9034;SDS011;4552;43.422;24.592;2023-03-12T20:36:13;2.97;;;2.47;;
9034;SDS011;4552;43.422;24.592;2023-03-12T20:38:41;3.33;;;2.50;;
9034;SDS011;4552;43.422;24.592;2023-03-12T20:41:09;2.60;;;2.30;;
9034;SDS011;4552;43.422;24.592;2023-03-12T20:43:38;3.03;;;2.40;;
9034;SDS011;4552;43.422;24.592;2023-03-12T20:46:05;3.27;;;2.40;;
9034;SDS011;4552;43.422;24.592;2023-03-12T20:48:32;4.13;;;2.53;;
9034;SDS011;4552;43.422;24.592;2023-03-12T20:50:59;3.43;;;2.43;;
9034;SDS011;4552;43.422;24.592;2023-03-12T20:53:26;2.80;;;2.47;;
9034;SDS011;4552;43.422;24.592;2023-03-12T20:55:55;2.57;;;2.37;;
9034;SDS011;4552;43.422;24.592;2023-03-12T20:58:22;3.70;;;2.67;;
9034;SDS011;4552;43.422;24.592;2023-03-12T21:00:49;3.70;;;3.17;;
9034;SDS011;4552;43.422;24.592;2023-03-12T21:03:16;3.27;;;2.60;;
9034;SDS011;4552;43.422;24.592;2023-03-12T21:05:50;3.27;;;2.53;;
9034;SDS011;4552;43.422;24.592;2023-03-12T21:08:19;3.57;;;2.60;;
9034;SDS011;4552;43.422;24.592;2023-03-12T21:10:46;4.93;;;2.70;;
9034;SDS011;4552;43.422;24.592;2023-03-12T21:13:15;5.47;;;3.50;;
9034;SDS011;4552;43.422;24.592;2023-03-12T21:15:44;3.20;;;2.53;;
9034;SDS011;4552;43.422;24.592;2023-03-12T21:18:11;4.57;;;2.70;;
9034;SDS011;4552;43.422;24.592;2023-03-12T21:20:38;4.33;;;2.83;;
9034;SDS011;4552;43.422;24.592;2023-03-12T23:42:29;5.17;;;3.30;;
9034;SDS011;4552;43.422;24.592;2023-03-12T23:44:56;4.47;;;3.40;;
9034;SDS011;4552;43.422;24.592;2023-03-12T23:47:23;4.47;;;3.40;;
9034;SDS011;4552;43.422;24.592;2023-03-12T23:49:50;4.30;;;3.07;;
9034;SDS011;4552;43.422;24.592;2023-03-12T23:52:17;5.50;;;3.50;;
9034;SDS011;4552;43.422;24.592;2023-03-12T23:54:44;4.70;;;3.43;;
9034;SDS011;4552;43.422;24.592;2023-03-12T23:57:10;6.47;;;4.13;;
9034;SDS011;4552;43.422;24.592;2023-03-12T23:59:39;5.60;;;3.63;;
